sensor_id;sensor_type;location;lat;lon;timestamp;pressure;altitude;pressure_sealevel;temperature;humidity
30614;BME280;17381;51.690;5.270;2022-10-16T02:48:36;100984.66;;;12.78;77.97
30614;BME280;17381;51.690;5.270;2022-10-16T02:54:14;100977.81;;;12.73;77.78
30614;BME280;17381;51.690;5.270;2022-10-16T02:56:54;100971.75;;;12.69;77.90
30614;BME280;17381;51.690;5.270;2022-10-16T02:59:49;100988.13;;;12.79;77.89
30614;BME280;17381;51.690;5.270;2022-10-16T03:02:34;100979.38;;;12.78;77.70
30614;BME280;17381;51.690;5.270;2022-10-16T03:05:18;100966.44;;;12.71;77.56
30614;BME280;17381;51.690;5.270;2022-10-16T03:07:54;100980.44;;;12.73;77.69
30614;BME280;17381;51.690;5.270;2022-10-16T03:10:46;100986.47;;;12.76;77.68
30614;BME280;17381;51.690;5.270;2022-10-16T03:13:33;100986.50;;;12.75;77.79
30614;BME280;17381;51.690;5.270;2022-10-16T03:16:20;100988.34;;;12.73;77.53
30614;BME280;17381;51.690;5.270;2022-10-16T03:18:55;100992.81;;;12.71;77.56
30614;BME280;17381;51.690;5.270;2022-10-16T03:21:35;100994.59;;;12.70;77.84
30614;BME280;17381;51.690;5.270;2022-10-16T03:24:15;100992.19;;;12.62;77.71
30614;BME280;17381;51.690;5.270;2022-10-16T03:26:56;100994.03;;;12.59;77.78
30614;BME280;17381;51.690;5.270;2022-10-16T03:30:00;101020.06;;;12.70;77.85
30614;BME280;17381;51.690;5.270;2022-10-16T03:32:44;101010.66;;;12.62;77.69
30614;BME280;17381;51.690;5.270;2022-10-16T03:35:16;101003.97;;;12.51;77.84
30614;BME280;17381;51.690;5.270;2022-10-16T03:37:55;101021.22;;;12.61;77.75
30614;BME280;17381;51.690;5.270;2022-10-16T03:40:29;101020.19;;;12.66;77.66
30614;BME280;17381;51.690;5.270;2022-10-16T03:43:17;101007.94;;;12.64;77.62
30614;BME280;17381;51.690;5.270;2022-10-16T03:46:10;101013.28;;;12.62;77.76
30614;BME280;17381;51.690;5.270;2022-10-16T03:49:10;101022.16;;;12.60;77.71
30614;BME280;17381;51.690;5.270;2022-10-16T03:51:54;101023.97;;;12.58;77.97
30614;BME280;17381;51.690;5.270;2022-10-16T03:54:35;101032.78;;;12.57;78.11
30614;BME280;17381;51.690;5.270;2022-10-16T03:57:15;101019.78;;;12.51;78.11
30614;BME280;17381;51.690;5.270;2022-10-16T03:59:56;101042.53;;;12.55;78.05
30614;BME280;17381;51.690;5.270;2022-10-16T04:02:43;101050.44;;;12.55;78.01
30614;BME280;17381;51.690;5.270;2022-10-16T04:08:55;101041.88;;;12.47;77.92
30614;BME280;17381;51.690;5.270;2022-10-16T04:11:35;101015.19;;;12.29;78.16
30614;BME280;17381;51.690;5.270;2022-10-16T04:14:19;101054.81;;;12.54;78.15
30614;BME280;17381;51.690;5.270;2022-10-16T04:16:54;101054.81;;;12.54;78.44
30614;BME280;17381;51.690;5.270;2022-10-16T04:19:37;101058.34;;;12.55;78.49
30614;BME280;17381;51.690;5.270;2022-10-16T04:22:31;101053.16;;;12.52;78.35
30614;BME280;17381;51.690;5.270;2022-10-16T04:25:09;101046.25;;;12.48;78.30
30614;BME280;17381;51.690;5.270;2022-10-16T04:27:47;101050.50;;;12.52;78.42
30614;BME280;17381;51.690;5.270;2022-10-16T04:30:24;101047.94;;;12.50;78.11
30614;BME280;17381;51.690;5.270;2022-10-16T04:32:59;101053.97;;;12.54;78.39
30614;BME280;17381;51.690;5.270;2022-10-16T04:35:29;101064.47;;;12.55;78.04
30614;BME280;17381;51.690;5.270;2022-10-16T04:38:24;101061.06;;;12.52;78.53
30614;BME280;17381;51.690;5.270;2022-10-16T04:40:58;101058.41;;;12.52;78.28
30614;BME280;17381;51.690;5.270;2022-10-16T04:43:43;101006.81;;;12.15;78.23
30614;BME280;17381;51.690;5.270;2022-10-16T04:46:34;101081.28;;;12.51;78.51
30614;BME280;17381;51.690;5.270;2022-10-16T04:49:10;101074.34;;;12.49;78.27
30614;BME280;17381;51.690;5.270;2022-10-16T04:52:00;101084.00;;;12.50;78.55
30614;BME280;17381;51.690;5.270;2022-10-16T04:55:04;101036.63;;;12.17;78.39
30614;BME280;17381;51.690;5.270;2022-10-16T04:57:40;101089.63;;;12.37;78.62
30614;BME280;17381;51.690;5.270;2022-10-16T05:00:20;101085.34;;;12.33;78.87
30614;BME280;17381;51.690;5.270;2022-10-16T05:03:03;101093.88;;;12.41;78.74
30614;BME280;17381;51.690;5.270;2022-10-16T05:05:41;101088.03;;;12.32;78.75
30614;BME280;17381;51.690;5.270;2022-10-16T05:08:16;101098.56;;;12.32;78.89
30614;BME280;17381;51.690;5.270;2022-10-16T05:11:03;101055.41;;;12.05;78.74
30614;BME280;17381;51.690;5.270;2022-10-16T05:13:53;101109.06;;;12.33;78.44
30614;BME280;17381;51.690;5.270;2022-10-16T05:16:38;101113.50;;;12.31;78.69
30614;BME280;17381;51.690;5.270;2022-10-16T05:19:28;101124.03;;;12.31;78.81
30614;BME280;17381;51.690;5.270;2022-10-16T05:22:09;101131.16;;;12.29;78.50
30614;BME280;17381;51.690;5.270;2022-10-16T05:24:50;101130.41;;;12.24;78.72
30614;BME280;17381;51.690;5.270;2022-10-16T05:27:33;101132.13;;;12.25;78.53
30614;BME280;17381;51.690;5.270;2022-10-16T05:30:12;101108.03;;;12.08;78.81
30614;BME280;17381;51.690;5.270;2022-10-16T05:33:11;101140.03;;;12.25;78.63
30614;BME280;17381;51.690;5.270;2022-10-16T05:35:55;101124.53;;;12.14;78.62
30614;BME280;17381;51.690;5.270;2022-10-16T05:38:38;101134.22;;;12.14;78.61
30614;BME280;17381;51.690;5.270;2022-10-16T05:41:16;101153.41;;;12.19;78.85
30614;BME280;17381;51.690;5.270;2022-10-16T05:43:57;101153.34;;;12.20;78.83
30614;BME280;17381;51.690;5.270;2022-10-16T05:46:41;101147.41;;;12.12;78.82
30614;BME280;17381;51.690;5.270;2022-10-16T05:49:27;101163.13;;;12.17;78.79
30614;BME280;17381;51.690;5.270;2022-10-16T05:52:15;101152.78;;;12.09;78.94
30614;BME280;17381;51.690;5.270;2022-10-16T05:54:51;101167.53;;;12.16;79.01
30614;BME280;17381;51.690;5.270;2022-10-16T05:57:31;101171.06;;;12.15;78.91
30614;BME280;17381;51.690;5.270;2022-10-16T05:59:57;101178.16;;;12.13;79.05
30614;BME280;17381;51.690;5.270;2022-10-16T06:02:59;101181.56;;;12.17;79.00
30614;BME280;17381;51.690;5.270;2022-10-16T06:05:41;101191.25;;;12.16;79.12
30614;BME280;17381;51.690;5.270;2022-10-16T06:08:24;101191.25;;;12.16;79.10
30614;BME280;17381;51.690;5.270;2022-10-16T06:11:04;101198.22;;;12.17;79.00
30614;BME280;17381;51.690;5.270;2022-10-16T06:14:06;101201.78;;;12.16;79.20
30614;BME280;17381;51.690;5.270;2022-10-16T06:16:41;101200.94;;;12.16;78.96
30614;BME280;17381;51.690;5.270;2022-10-16T06:19:19;101205.38;;;12.14;78.97
30614;BME280;17381;51.690;5.270;2022-10-16T06:21:54;101205.38;;;12.14;79.36
30614;BME280;17381;51.690;5.270;2022-10-16T06:24:33;101157.84;;;11.83;79.07
30614;BME280;17381;51.690;5.270;2022-10-16T06:29:55;101220.31;;;12.13;79.25
30614;BME280;17381;51.690;5.270;2022-10-16T06:32:33;101169.25;;;11.83;79.28
30614;BME280;17381;51.690;5.270;2022-10-16T06:35:17;101222.91;;;12.15;79.40
30614;BME280;17381;51.690;5.270;2022-10-16T06:37:58;101228.97;;;12.18;79.70
30614;BME280;17381;51.690;5.270;2022-10-16T06:40:39;101239.28;;;12.26;79.82
30614;BME280;17381;51.690;5.270;2022-10-16T06:43:24;101238.31;;;12.30;79.92
30614;BME280;17381;51.690;5.270;2022-10-16T06:46:09;101247.78;;;12.37;79.75
30614;BME280;17381;51.690;5.270;2022-10-16T06:48:44;101248.63;;;12.39;80.02
30614;BME280;17381;51.690;5.270;2022-10-16T06:51:27;101246.66;;;12.46;80.15
30614;BME280;17381;51.690;5.270;2022-10-16T06:54:10;101238.75;;;12.46;80.07
30614;BME280;17381;51.690;5.270;2022-10-16T06:56:45;101243.88;;;12.52;80.09
30614;BME280;17381;51.690;5.270;2022-10-16T06:59:24;101198.03;;;12.25;80.10
30614;BME280;17381;51.690;5.270;2022-10-16T07:02:05;101269.94;;;12.63;80.34
30614;BME280;17381;51.690;5.270;2022-10-16T07:04:54;101251.69;;;12.55;80.44
30614;BME280;17381;51.690;5.270;2022-10-16T07:07:29;101269.84;;;12.68;80.41
30614;BME280;17381;51.690;5.270;2022-10-16T07:10:00;101270.69;;;12.68;80.35
30614;BME280;17381;51.690;5.270;2022-10-16T07:12:46;101277.53;;;12.75;80.27
30614;BME280;17381;51.690;5.270;2022-10-16T07:15:38;101288.00;;;12.78;80.22
30614;BME280;17381;51.690;5.270;2022-10-16T07:18:21;101295.03;;;12.78;80.25
30614;BME280;17381;51.690;5.270;2022-10-16T07:21:18;101307.22;;;12.82;79.83
30614;BME280;17381;51.690;5.270;2022-10-16T07:24:01;101313.34;;;12.82;80.06
30614;BME280;17381;51.690;5.270;2022-10-16T07:26:42;101310.72;;;12.82;80.02
30614;BME280;17381;51.690;5.270;2022-10-16T07:29:19;101283.16;;;12.61;80.03
30614;BME280;17381;51.690;5.270;2022-10-16T07:32:12;101328.25;;;12.85;80.06
30614;BME280;17381;51.690;5.270;2022-10-16T07:34:50;101328.16;;;12.88;79.99
30614;BME280;17381;51.690;5.270;2022-10-16T07:37:37;101332.56;;;12.87;80.11
30614;BME280;17381;51.690;5.270;2022-10-16T07:40:29;101331.69;;;12.88;80.33
30614;BME280;17381;51.690;5.270;2022-10-16T07:43:10;101338.59;;;12.93;80.12
30614;BME280;17381;51.690;5.270;2022-10-16T07:45:50;101334.97;;;12.97;80.26
30614;BME280;17381;51.690;5.270;2022-10-16T07:48:37;101323.56;;;12.95;80.33
30614;BME280;17381;51.690;5.270;2022-10-16T07:51:31;101341.81;;;13.04;80.31
30614;BME280;17381;51.690;5.270;2022-10-16T07:54:27;101293.19;;;12.81;80.25
30614;BME280;17381;51.690;5.270;2022-10-16T07:57:29;101351.25;;;13.11;80.22
30614;BME280;17381;51.690;5.270;2022-10-16T08:00:13;101345.09;;;13.12;80.07
30614;BME280;17381;51.690;5.270;2022-10-16T08:02:50;101355.66;;;13.12;80.21
30614;BME280;17381;51.690;5.270;2022-10-16T08:05:35;101353.91;;;13.11;80.42
30614;BME280;17381;51.690;5.270;2022-10-16T08:08:16;101371.09;;;13.26;80.25
30614;BME280;17381;51.690;5.270;2022-10-16T08:11:00;101340.91;;;13.03;79.80
30614;BME280;17381;51.690;5.270;2022-10-16T08:13:41;101380.59;;;13.33;80.56
30614;BME280;17381;51.690;5.270;2022-10-16T08:16:11;101396.31;;;13.38;80.20
30614;BME280;17381;51.690;5.270;2022-10-16T08:19:04;101383.97;;;13.38;80.19
30614;BME280;17381;51.690;5.270;2022-10-16T08:21:46;101389.88;;;13.48;80.18
30614;BME280;17381;51.690;5.270;2022-10-16T08:24:21;101388.09;;;13.48;80.20
30614;BME280;17381;51.690;5.270;2022-10-16T08:27:05;101405.28;;;13.63;80.17
30614;BME280;17381;51.690;5.270;2022-10-16T08:37:39;101394.31;;;13.75;79.98
30614;BME280;17381;51.690;5.270;2022-10-16T08:40:30;101418.19;;;14.02;80.21
30614;BME280;17381;51.690;5.270;2022-10-16T08:47:44;101432.59;;;14.48;78.54
30614;BME280;17381;51.690;5.270;2022-10-16T08:53:27;101438.81;;;14.74;78.21
30614;BME280;17381;51.690;5.270;2022-10-16T08:56:12;101432.22;;;14.87;78.16
30614;BME280;17381;51.690;5.270;2022-10-16T08:59:03;101446.59;;;15.05;77.77
30614;BME280;17381;51.690;5.270;2022-10-16T09:02:01;101431.31;;;15.13;77.60
30614;BME280;17381;51.690;5.270;2022-10-16T09:34:02;101471.88;;;16.78;72.52
30614;BME280;17381;51.690;5.270;2022-10-16T09:37:26;101465.78;;;16.97;72.21
30614;BME280;17381;51.690;5.270;2022-10-16T09:40:11;101465.00;;;17.15;71.83
30614;BME280;17381;51.690;5.270;2022-10-16T09:50:26;101483.44;;;17.59;70.73
30614;BME280;17381;51.690;5.270;2022-10-16T09:53:15;101443.03;;;17.51;69.56
30614;BME280;17381;51.690;5.270;2022-10-16T09:56:05;101482.41;;;17.82;69.28
30614;BME280;17381;51.690;5.270;2022-10-16T09:58:52;101448.16;;;17.75;69.37
30614;BME280;17381;51.690;5.270;2022-10-16T10:01:53;101485.88;;;18.03;69.47
30614;BME280;17381;51.690;5.270;2022-10-16T10:04:46;101474.19;;;18.07;69.00
30614;BME280;17381;51.690;5.270;2022-10-16T10:07:52;101433.13;;;17.94;68.63
30614;BME280;17381;51.690;5.270;2022-10-16T10:17:33;101450.72;;;18.52;66.87
30614;BME280;17381;51.690;5.270;2022-10-16T10:20:23;101480.41;;;18.81;66.05
30614;BME280;17381;51.690;5.270;2022-10-16T10:23:24;101489.66;;;18.91;64.98
30614;BME280;17381;51.690;5.270;2022-10-16T10:35:05;101463.34;;;18.85;64.08
30614;BME280;17381;51.690;5.270;2022-10-16T10:45:35;101520.41;;;19.33;64.93
30614;BME280;17381;51.690;5.270;2022-10-16T10:55:03;101513.19;;;19.00;63.80
30614;BME280;17381;51.690;5.270;2022-10-16T10:58:01;101516.31;;;18.91;63.99
30614;BME280;17381;51.690;5.270;2022-10-16T11:01:12;101523.72;;;19.21;64.44
30614;BME280;17381;51.690;5.270;2022-10-16T11:03:58;101515.91;;;19.51;64.08
30614;BME280;17381;51.690;5.270;2022-10-16T11:06:50;101522.47;;;20.27;62.05
30614;BME280;17381;51.690;5.270;2022-10-16T11:09:39;101518.03;;;21.06;61.11
30614;BME280;17381;51.690;5.270;2022-10-16T11:12:23;101520.22;;;21.74;59.07
30614;BME280;17381;51.690;5.270;2022-10-16T11:22:07;101524.38;;;22.90;52.25
30614;BME280;17381;51.690;5.270;2022-10-16T11:27:53;101518.94;;;23.31;52.58
30614;BME280;17381;51.690;5.270;2022-10-16T11:30:34;101513.78;;;23.41;52.06
30614;BME280;17381;51.690;5.270;2022-10-16T11:33:41;101458.41;;;23.14;52.23
30614;BME280;17381;51.690;5.270;2022-10-16T11:36:28;101521.09;;;23.64;51.42
30614;BME280;17381;51.690;5.270;2022-10-16T11:42:37;101530.56;;;24.08;51.94
30614;BME280;17381;51.690;5.270;2022-10-16T11:45:45;101498.13;;;24.11;50.34
30614;BME280;17381;51.690;5.270;2022-10-16T11:57:27;101529.69;;;25.06;50.14
30614;BME280;17381;51.690;5.270;2022-10-16T12:00:26;101489.16;;;24.96;49.74
30614;BME280;17381;51.690;5.270;2022-10-16T12:03:26;101530.31;;;25.33;49.78
30614;BME280;17381;51.690;5.270;2022-10-16T12:06:11;101534.97;;;25.42;50.02
30614;BME280;17381;51.690;5.270;2022-10-16T12:09:10;101493.97;;;25.39;49.70
30614;BME280;17381;51.690;5.270;2022-10-16T12:12:02;101531.63;;;25.85;49.18
30614;BME280;17381;51.690;5.270;2022-10-16T12:14:47;101543.13;;;25.99;47.65
30614;BME280;17381;51.690;5.270;2022-10-16T12:17:40;101544.75;;;26.13;47.78
30614;BME280;17381;51.690;5.270;2022-10-16T12:23:03;101499.84;;;26.34;47.00
30614;BME280;17381;51.690;5.270;2022-10-16T12:25:42;101530.09;;;26.60;46.23
30614;BME280;17381;51.690;5.270;2022-10-16T12:28:30;101530.06;;;26.71;45.36
30614;BME280;17381;51.690;5.270;2022-10-16T12:31:15;101535.22;;;26.74;45.22
30614;BME280;17381;51.690;5.270;2022-10-16T12:37:29;101545.22;;;26.84;45.69
30614;BME280;17381;51.690;5.270;2022-10-16T12:40:30;101533.06;;;26.89;44.63
30614;BME280;17381;51.690;5.270;2022-10-16T12:51:55;101542.41;;;26.85;44.90
30614;BME280;17381;51.690;5.270;2022-10-16T12:54:41;101541.97;;;27.01;44.12
30614;BME280;17381;51.690;5.270;2022-10-16T12:57:34;101534.53;;;27.14;44.16
30614;BME280;17381;51.690;5.270;2022-10-16T13:00:33;101528.25;;;27.25;43.60
30614;BME280;17381;51.690;5.270;2022-10-16T13:03:40;101502.41;;;27.11;42.69
30614;BME280;17381;51.690;5.270;2022-10-16T13:06:35;101541.94;;;27.33;43.81
30614;BME280;17381;51.690;5.270;2022-10-16T13:22:19;101552.31;;;27.70;43.78
30614;BME280;17381;51.690;5.270;2022-10-16T13:27:55;101549.38;;;27.62;43.46
30614;BME280;17381;51.690;5.270;2022-10-16T13:30:35;101547.34;;;27.54;43.83
30614;BME280;17381;51.690;5.270;2022-10-16T13:33:39;101561.38;;;27.48;43.25
30614;BME280;17381;51.690;5.270;2022-10-16T13:36:23;101548.00;;;27.47;42.35
30614;BME280;17381;51.690;5.270;2022-10-16T13:39:13;101555.41;;;27.66;43.04
30614;BME280;17381;51.690;5.270;2022-10-16T13:42:18;101562.44;;;27.78;42.70
30614;BME280;17381;51.690;5.270;2022-10-16T13:44:53;101479.63;;;27.46;42.83
30614;BME280;17381;51.690;5.270;2022-10-16T13:47:33;101554.03;;;28.02;42.57
30614;BME280;17381;51.690;5.270;2022-10-16T13:50:28;101557.19;;;28.07;41.28
30614;BME280;17381;51.690;5.270;2022-10-16T13:53:31;101558.78;;;28.10;41.25
30614;BME280;17381;51.690;5.270;2022-10-16T13:56:25;101559.72;;;27.99;41.67
30614;BME280;17381;51.690;5.270;2022-10-16T13:59:29;101565.06;;;27.89;42.35
30614;BME280;17381;51.690;5.270;2022-10-16T14:02:29;101554.94;;;27.39;42.31
30614;BME280;17381;51.690;5.270;2022-10-16T14:05:18;101520.72;;;26.75;41.96
30614;BME280;17381;51.690;5.270;2022-10-16T14:08:48;101554.63;;;26.35;42.57
30614;BME280;17381;51.690;5.270;2022-10-16T14:11:24;101555.84;;;25.74;42.78
30614;BME280;17381;51.690;5.270;2022-10-16T14:14:00;101527.50;;;25.11;43.23
30614;BME280;17381;51.690;5.270;2022-10-16T14:16:45;101545.72;;;25.07;44.30
30614;BME280;17381;51.690;5.270;2022-10-16T14:19:26;101559.44;;;24.67;44.75
30614;BME280;17381;51.690;5.270;2022-10-16T14:25:39;101559.44;;;23.66;46.28
30614;BME280;17381;51.690;5.270;2022-10-16T14:28:39;101561.88;;;23.18;47.32
30614;BME280;17381;51.690;5.270;2022-10-16T14:31:29;101557.19;;;22.80;47.96
30614;BME280;17381;51.690;5.270;2022-10-16T14:34:24;101569.50;;;22.56;48.35
30614;BME280;17381;51.690;5.270;2022-10-16T14:37:29;101563.41;;;22.25;49.51
30614;BME280;17381;51.690;5.270;2022-10-16T14:40:14;101552.41;;;22.01;50.29
30614;BME280;17381;51.690;5.270;2022-10-16T14:42:55;101561.50;;;21.84;51.03
30614;BME280;17381;51.690;5.270;2022-10-16T14:48:46;101552.28;;;21.60;51.77
30614;BME280;17381;51.690;5.270;2022-10-16T14:52:04;101559.53;;;21.43;52.10
30614;BME280;17381;51.690;5.270;2022-10-16T14:55:17;101556.69;;;21.30;52.66
30614;BME280;17381;51.690;5.270;2022-10-16T14:58:55;101553.97;;;21.16;53.39
30614;BME280;17381;51.690;5.270;2022-10-16T15:02:57;101550.56;;;20.98;53.58
30614;BME280;17381;51.690;5.270;2022-10-16T15:06:15;101544.47;;;20.80;53.68
30614;BME280;17381;51.690;5.270;2022-10-16T15:09:44;101564.91;;;20.65;54.22
30614;BME280;17381;51.690;5.270;2022-10-16T15:24:10;101523.50;;;20.09;56.27
30614;BME280;17381;51.690;5.270;2022-10-16T15:30:56;101557.06;;;20.13;56.59
30614;BME280;17381;51.690;5.270;2022-10-16T15:34:26;101561.81;;;20.08;56.80
30614;BME280;17381;51.690;5.270;2022-10-16T15:37:49;101565.84;;;19.99;57.26
30614;BME280;17381;51.690;5.270;2022-10-16T15:44:34;101569.25;;;19.86;57.67
30614;BME280;17381;51.690;5.270;2022-10-16T16:12:41;101544.41;;;19.15;59.58
30614;BME280;17381;51.690;5.270;2022-10-16T16:19:59;101560.53;;;18.95;59.98
30614;BME280;17381;51.690;5.270;2022-10-16T16:27:04;101567.38;;;18.82;60.25
30614;BME280;17381;51.690;5.270;2022-10-16T16:33:52;101552.03;;;18.68;60.53
30614;BME280;17381;51.690;5.270;2022-10-16T17:11:19;101576.16;;;18.27;62.47
30614;BME280;17381;51.690;5.270;2022-10-16T17:18:02;101576.28;;;18.24;62.69
30614;BME280;17381;51.690;5.270;2022-10-16T17:21:24;101572.97;;;18.19;62.74
30614;BME280;17381;51.690;5.270;2022-10-16T17:28:16;101578.66;;;18.11;62.93
30614;BME280;17381;51.690;5.270;2022-10-16T17:35:39;101582.59;;;18.02;62.81
30614;BME280;17381;51.690;5.270;2022-10-16T17:42:43;101585.59;;;17.95;63.20
30614;BME280;17381;51.690;5.270;2022-10-16T17:46:54;101579.69;;;17.88;63.39
30614;BME280;17381;51.690;5.270;2022-10-16T17:49:54;101574.44;;;17.86;63.59
30614;BME280;17381;51.690;5.270;2022-10-16T17:53:30;101572.34;;;17.73;63.62
30614;BME280;17381;51.690;5.270;2022-10-16T18:00:56;101603.22;;;17.77;63.99
30614;BME280;17381;51.690;5.270;2022-10-16T18:08:13;101612.31;;;17.71;64.26
30614;BME280;17381;51.690;5.270;2022-10-16T18:11:36;101595.56;;;17.49;64.28
30614;BME280;17381;51.690;5.270;2022-10-16T18:22:31;101681.88;;;17.60;64.71
30614;BME280;17381;51.690;5.270;2022-10-16T18:26:10;101687.28;;;17.59;64.68
30614;BME280;17381;51.690;5.270;2022-10-16T18:29:41;101681.34;;;17.52;64.85
30614;BME280;17381;51.690;5.270;2022-10-16T18:37:02;101678.94;;;17.46;65.15
30614;BME280;17381;51.690;5.270;2022-10-16T18:40:43;101685.22;;;17.45;65.14
30614;BME280;17381;51.690;5.270;2022-10-16T18:51:46;101659.94;;;17.35;65.58
30614;BME280;17381;51.690;5.270;2022-10-16T19:24:16;101680.91;;;16.97;67.19
30614;BME280;17381;51.690;5.270;2022-10-16T19:44:02;101682.31;;;16.84;67.80
30614;BME280;17381;51.690;5.270;2022-10-16T20:35:06;101656.63;;;16.37;70.45
30614;BME280;17381;51.690;5.270;2022-10-16T20:38:41;101661.97;;;16.35;70.39
30614;BME280;17381;51.690;5.270;2022-10-16T22:34:14;101610.53;;;15.39;72.97
30614;BME280;17381;51.690;5.270;2022-10-16T22:54:23;101610.78;;;15.32;73.47
